Time;durP1;ratioP1;P1;durP2;ratioP2;P2;SDS_P1;SDS_P2;PMS_P1;PMS_P2;Temp;Humidity;BMP_temperature;BMP_pressure;BME280_temperature;BME280_humidity;BME280_pressure;Samples;Min_cycle;Max_cycle;Signal;HPM_P1;HPM_P2
2022/09/08 00:02:07;;;;;;;;;1.00;1.00;;;;;-144.76;100.00;60493.00;5090112;28;58797;-82
2022/09/08 00:04:33;;;;;;;;;1.25;1.00;;;;;-144.76;100.00;60493.00;5091060;27;45282;-82
2022/09/08 00:07:00;;;;;;;;;1.00;1.00;;;;;-144.76;100.00;60493.00;5092994;27;45104;-82
2022/09/08 00:09:25;;;;;;;;;0.00;0.00;;;;;-144.76;100.00;60493.00;5094140;27;45515;-82
2022/09/08 00:11:51;;;;;;;;;0.50;0.50;;;;;-144.76;100.00;60493.00;5093796;27;45182;-83
2022/09/08 00:14:17;;;;;;;;;0.50;0.50;;;;;-144.76;100.00;60493.00;5093916;28;45633;-83
2022/09/08 00:16:42;;;;;;;;;1.00;0.75;;;;;-144.76;100.00;60493.00;5093714;27;45876;-82
2022/09/08 00:19:08;;;;;;;;;1.00;0.25;;;;;-144.76;100.00;60493.00;5093671;27;53055;-82
2022/09/08 00:21:34;;;;;;;;;1.00;1.00;;;;;-144.76;100.00;60493.00;5093827;27;45021;-82
2022/09/08 00:23:59;;;;;;;;;2.00;1.00;;;;;-144.76;100.00;60493.00;5093643;27;44974;-82
2022/09/08 00:26:24;;;;;;;;;1.25;0.75;;;;;-144.76;100.00;60493.00;5093032;27;45408;-82
2022/09/08 00:28:51;;;;;;;;;0.25;0.25;;;;;-144.76;100.00;60493.00;5094218;27;45187;-82
2022/09/08 00:31:17;;;;;;;;;0.25;0.25;;;;;-144.76;100.00;60493.00;5093125;27;45121;-82
2022/09/08 00:33:44;;;;;;;;;1.00;1.00;;;;;-144.76;100.00;60493.00;5093938;28;45519;-82
2022/09/08 00:36:15;;;;;;;;;2.00;1.00;;;;;-144.76;100.00;60493.00;5093454;28;45082;-82
2022/09/08 00:38:41;;;;;;;;;0.00;0.00;;;;;-144.76;100.00;60493.00;5093962;27;45035;-82
2022/09/08 00:41:10;;;;;;;;;2.00;1.25;;;;;-144.76;100.00;60493.00;5092769;27;45154;-82
2022/09/08 00:43:39;;;;;;;;;1.50;1.00;;;;;-144.76;100.00;60493.00;5094055;27;45057;-82
2022/09/08 00:46:14;;;;;;;;;0.50;0.50;;;;;-144.76;100.00;60493.00;5109317;27;47022;-82
2022/09/08 00:49:08;;;;;;;;;1.00;1.00;;;;;-144.76;100.00;60493.00;5093658;27;45389;-82
2022/09/08 00:51:38;;;;;;;;;1.00;1.00;;;;;-144.76;100.00;60493.00;5093251;27;44998;-82
2022/09/08 00:54:05;;;;;;;;;2.00;1.00;;;;;-144.76;100.00;60493.00;5093248;27;45097;-82
2022/09/08 00:56:30;;;;;;;;;1.00;1.00;;;;;-144.76;100.00;60493.00;5092365;28;45746;-82
2022/09/08 00:58:57;;;;;;;;;0.00;0.00;;;;;-144.76;100.00;60493.00;5093645;27;44985;-82
2022/09/08 01:01:22;;;;;;;;;1.50;1.00;;;;;-144.76;100.00;60493.00;5092915;27;45205;-82
2022/09/08 01:03:48;;;;;;;;;2.25;2.00;;;;;-144.76;100.00;60493.00;5093620;27;45083;-82
2022/09/08 01:12:45;;;;;;;;;1.00;0.25;;;;;-144.76;100.00;60493.00;5093213;28;45234;-81
2022/09/08 01:15:23;;;;;;;;;1.00;1.00;;;;;-144.76;100.00;60493.00;5092922;27;45000;-81
2022/09/08 01:17:51;;;;;;;;;1.00;1.00;;;;;-144.76;100.00;60493.00;5091732;27;45622;-81
2022/09/08 01:20:23;;;;;;;;;1.00;1.00;;;;;-144.76;100.00;60493.00;5092660;27;45607;-82
2022/09/08 01:23:16;;;;;;;;;0.00;0.00;;;;;-144.76;100.00;60493.00;5093012;28;45078;-82
2022/09/08 01:26:16;;;;;;;;;1.00;1.00;;;;;-144.76;100.00;60493.00;5091944;28;45088;-81
2022/09/08 01:28:53;;;;;;;;;1.00;0.50;;;;;-144.76;100.00;60493.00;5092405;27;45164;-82
2022/09/08 01:31:21;;;;;;;;;1.00;1.00;;;;;-144.76;100.00;60493.00;5092699;28;45416;-81
2022/09/08 01:33:47;;;;;;;;;1.00;1.00;;;;;-144.76;100.00;60493.00;5092969;27;44984;-81
2022/09/08 01:36:14;;;;;;;;;1.25;0.75;;;;;-144.76;100.00;60493.00;5092809;27;45341;-82
2022/09/08 01:38:40;;;;;;;;;2.50;2.00;;;;;-144.76;100.00;60493.00;5092861;28;45223;-81
2022/09/08 01:41:06;;;;;;;;;1.00;1.00;;;;;-144.76;100.00;60493.00;5091917;27;45064;-82
2022/09/08 01:43:31;;;;;;;;;0.50;0.50;;;;;-144.76;100.00;60493.00;5092730;28;44979;-81
2022/09/08 01:45:57;;;;;;;;;0.75;0.75;;;;;-144.76;100.00;60493.00;5092702;27;45005;-81
2022/09/08 01:48:23;;;;;;;;;3.25;2.00;;;;;-144.76;100.00;60493.00;5091092;28;46156;-82
2022/09/08 01:50:50;;;;;;;;;1.50;1.50;;;;;-144.76;100.00;60493.00;5092783;27;45550;-81
2022/09/08 01:53:15;;;;;;;;;1.75;1.75;;;;;-144.76;100.00;60493.00;5092618;27;45256;-82
2022/09/08 01:55:41;;;;;;;;;1.00;1.00;;;;;-144.76;100.00;60493.00;5091741;27;44933;-82
2022/09/08 01:58:06;;;;;;;;;2.00;2.00;;;;;-144.76;100.00;60493.00;5107528;27;65451;-81
2022/09/08 02:00:32;;;;;;;;;1.00;1.00;;;;;-144.76;100.00;60493.00;5092096;27;45040;-81
2022/09/08 02:02:57;;;;;;;;;1.25;1.25;;;;;-144.76;100.00;60493.00;5092403;27;44841;-81
2022/09/08 02:05:22;;;;;;;;;0.25;0.25;;;;;-144.76;100.00;60493.00;5090486;27;48120;-82
2022/09/08 02:07:48;;;;;;;;;1.00;1.00;;;;;-144.76;100.00;60493.00;5092123;27;45163;-82
2022/09/08 02:10:13;;;;;;;;;1.00;1.00;;;;;-144.76;100.00;60493.00;5091306;28;63954;-83
2022/09/08 02:12:39;;;;;;;;;1.75;1.00;;;;;-144.76;100.00;60493.00;5091629;27;45140;-82
2022/09/08 02:15:06;;;;;;;;;1.00;1.00;;;;;-144.76;100.00;60493.00;5092811;27;45164;-83
2022/09/08 02:17:32;;;;;;;;;2.50;1.00;;;;;-144.76;100.00;60493.00;5092011;28;45599;-83
2022/09/08 02:19:57;;;;;;;;;1.00;1.00;;;;;-144.76;100.00;60493.00;5092138;28;45669;-82
2022/09/08 02:22:23;;;;;;;;;2.00;2.00;;;;;-144.76;100.00;60493.00;5091944;27;44907;-82
2022/09/08 02:24:48;;;;;;;;;1.00;0.50;;;;;-144.76;100.00;60493.00;5091870;27;44934;-82
2022/09/08 02:27:14;;;;;;;;;2.00;2.00;;;;;-144.76;100.00;60493.00;5091698;27;45732;-82
2022/09/08 02:29:39;;;;;;;;;2.00;2.00;;;;;-144.76;100.00;60493.00;5091807;27;45064;-82
2022/09/08 02:32:05;;;;;;;;;1.00;1.00;;;;;-144.76;100.00;60493.00;5092309;27;44989;-82
2022/09/08 02:34:30;;;;;;;;;2.00;2.00;;;;;-144.76;100.00;60493.00;5092255;27;44918;-83
2022/09/08 02:36:56;;;;;;;;;2.00;1.25;;;;;-144.76;100.00;60493.00;5091505;27;46108;-82
2022/09/08 02:39:21;;;;;;;;;2.50;1.75;;;;;-144.76;100.00;60493.00;5091313;27;45071;-82
2022/09/08 02:41:47;;;;;;;;;2.25;1.50;;;;;-144.76;100.00;60493.00;5089971;27;44985;-82
2022/09/08 02:44:13;;;;;;;;;0.75;0.75;;;;;-144.76;100.00;60493.00;5107723;27;45182;-82
2022/09/08 02:46:39;;;;;;;;;2.00;1.50;;;;;-144.76;100.00;60493.00;5091601;27;45586;-82
2022/09/08 02:49:05;;;;;;;;;1.50;1.50;;;;;-144.76;100.00;60493.00;5091657;27;45098;-82
2022/09/08 02:51:32;;;;;;;;;1.00;0.50;;;;;-144.76;100.00;60493.00;5091787;27;44976;-82
2022/09/08 02:53:57;;;;;;;;;1.75;1.75;;;;;-144.76;100.00;60493.00;5091163;27;45175;-82
2022/09/08 02:56:23;;;;;;;;;0.75;0.75;;;;;-144.76;100.00;60493.00;5091097;27;45713;-82
2022/09/08 02:58:49;;;;;;;;;2.75;2.75;;;;;-144.76;100.00;60493.00;5091048;27;45009;-80
2022/09/08 03:01:14;;;;;;;;;2.00;1.75;;;;;-144.76;100.00;60493.00;5091681;27;44917;-82
2022/09/08 03:03:40;;;;;;;;;1.75;1.00;;;;;-144.76;100.00;60493.00;5091280;27;44934;-82
2022/09/08 03:06:06;;;;;;;;;2.75;1.75;;;;;-144.76;100.00;60493.00;5090642;28;58822;-82
2022/09/08 03:08:32;;;;;;;;;1.50;1.50;;;;;-144.76;100.00;60493.00;5091743;27;45441;-82
2022/09/08 03:10:58;;;;;;;;;1.75;1.75;;;;;-144.76;100.00;60493.00;5090701;27;45100;-82
2022/09/08 03:13:23;;;;;;;;;0.75;0.75;;;;;-144.76;100.00;60493.00;5091444;27;45134;-82
2022/09/08 03:15:49;;;;;;;;;1.75;1.75;;;;;-144.76;100.00;60493.00;5089605;28;47022;-82
2022/09/08 03:18:15;;;;;;;;;2.00;2.00;;;;;-144.76;100.00;60493.00;5091030;27;45150;-82
2022/09/08 03:20:41;;;;;;;;;1.00;0.75;;;;;-144.76;100.00;60493.00;5091333;27;45119;-82
2022/09/08 03:23:07;;;;;;;;;2.50;2.25;;;;;-144.76;100.00;60493.00;5091057;28;44913;-82
2022/09/08 03:25:36;;;;;;;;;2.00;2.00;;;;;-144.76;100.00;60493.00;5090378;28;45812;-82
2022/09/08 03:28:02;;;;;;;;;4.50;2.75;;;;;-144.76;100.00;60493.00;5091127;27;45339;-81
2022/09/08 03:30:27;;;;;;;;;2.25;2.25;;;;;-144.76;100.00;60493.00;5090838;28;45186;-81
2022/09/08 03:32:53;;;;;;;;;2.00;1.75;;;;;-144.76;100.00;60493.00;5091042;28;47289;-81
2022/09/08 03:35:18;;;;;;;;;1.75;1.75;;;;;-144.76;100.00;60493.00;5091329;27;45445;-81
2022/09/08 03:37:45;;;;;;;;;1.75;1.75;;;;;-144.76;100.00;60493.00;5091001;27;45100;-81
2022/09/08 03:40:14;;;;;;;;;4.00;3.00;;;;;-144.76;100.00;60493.00;5090631;27;44976;-81
2022/09/08 03:42:41;;;;;;;;;2.75;2.75;;;;;-144.76;100.00;60493.00;5093735;27;45107;-81
2022/09/08 03:45:09;;;;;;;;;5.00;3.75;;;;;-144.76;100.00;60493.00;5094171;27;45654;-82
2022/09/08 03:47:35;;;;;;;;;4.00;3.00;;;;;-144.76;100.00;60493.00;5093830;27;45112;-81
2022/09/08 03:50:02;;;;;;;;;4.00;4.00;;;;;-144.76;100.00;60493.00;5094269;27;45017;-81
2022/09/08 03:52:28;;;;;;;;;4.00;3.25;;;;;-144.76;100.00;60493.00;5093850;27;45155;-81
2022/09/08 03:54:53;;;;;;;;;4.00;4.00;;;;;-144.76;100.00;60493.00;5093562;27;59690;-81
2022/09/08 03:57:28;;;;;;;;;4.50;3.75;;;;;-144.76;100.00;60493.00;5093749;27;44937;-81
2022/09/08 03:59:56;;;;;;;;;4.00;4.00;;;;;-144.76;100.00;60493.00;5094002;28;44897;-81
2022/09/08 04:02:22;;;;;;;;;4.00;3.50;;;;;-144.76;100.00;60493.00;5093984;27;44941;-81
2022/09/08 04:04:54;;;;;;;;;5.00;3.75;;;;;-144.76;100.00;60493.00;5093838;27;45629;-81
2022/09/08 04:07:21;;;;;;;;;3.75;3.50;;;;;-144.76;100.00;60493.00;5109815;27;45467;-82
2022/09/08 04:09:47;;;;;;;;;3.75;3.75;;;;;-144.76;100.00;60493.00;5094013;28;45015;-82
2022/09/08 04:12:14;;;;;;;;;3.25;3.00;;;;;-144.76;100.00;60493.00;5093380;27;45044;-83
2022/09/08 04:14:40;;;;;;;;;4.75;4.50;;;;;-144.76;100.00;60493.00;5093965;27;45761;-82
2022/09/08 04:17:06;;;;;;;;;4.50;3.75;;;;;-144.76;100.00;60493.00;5093844;28;45473;-82
2022/09/08 04:19:31;;;;;;;;;4.75;3.00;;;;;-144.76;100.00;60493.00;5093928;28;44960;-82
2022/09/08 04:21:57;;;;;;;;;2.25;2.25;;;;;-144.76;100.00;60493.00;5093904;27;45056;-81
2022/09/08 04:24:22;;;;;;;;;4.75;4.00;;;;;-144.76;100.00;60493.00;5093348;27;54845;-81
2022/09/08 04:26:48;;;;;;;;;3.75;3.75;;;;;-144.76;100.00;60493.00;5092462;27;45025;-81
2022/09/08 04:29:15;;;;;;;;;3.00;3.00;;;;;-144.76;100.00;60493.00;5093969;27;45032;-81
2022/09/08 04:31:40;;;;;;;;;2.25;1.75;;;;;-144.76;100.00;60493.00;5093672;27;44931;-81
2022/09/08 04:34:05;;;;;;;;;2.75;2.75;;;;;-144.76;100.00;60493.00;5093482;27;45788;-82
2022/09/08 04:36:31;;;;;;;;;3.00;2.75;;;;;-144.76;100.00;60493.00;5093305;27;44945;-82
2022/09/08 04:38:58;;;;;;;;;4.00;3.00;;;;;-144.76;100.00;60493.00;5093247;27;45106;-82
2022/09/08 04:41:26;;;;;;;;;2.00;2.00;;;;;-144.76;100.00;60493.00;5092886;28;45155;-82
2022/09/08 04:43:53;;;;;;;;;3.00;2.25;;;;;-144.76;100.00;60493.00;5093730;28;46179;-82
2022/09/08 04:46:18;;;;;;;;;2.75;2.75;;;;;-144.76;100.00;60493.00;5093584;28;45190;-81
2022/09/08 04:48:45;;;;;;;;;4.50;3.50;;;;;-144.76;100.00;60493.00;5093275;27;45182;-81
2022/09/08 04:51:12;;;;;;;;;2.75;2.00;;;;;-144.76;100.00;60493.00;5093565;27;45245;-81
2022/09/08 04:53:38;;;;;;;;;2.75;2.50;;;;;-144.76;100.00;60493.00;5091371;27;45222;-81
2022/09/08 04:56:05;;;;;;;;;2.00;2.00;;;;;-144.76;100.00;60493.00;5092355;27;45003;-82
2022/09/08 04:58:33;;;;;;;;;2.00;2.00;;;;;-144.76;100.00;60493.00;5093727;27;45222;-81
2022/09/08 05:01:08;;;;;;;;;3.25;2.50;;;;;-144.76;100.00;60493.00;5092272;28;44933;-81
2022/09/08 05:03:34;;;;;;;;;3.00;2.75;;;;;-144.76;100.00;60493.00;5092946;28;45245;-82
2022/09/08 05:06:06;;;;;;;;;2.75;2.00;;;;;-144.76;100.00;60493.00;5090993;28;45066;-82
2022/09/08 05:08:32;;;;;;;;;2.00;1.75;;;;;-144.76;100.00;60493.00;5093775;27;45157;-81
2022/09/08 05:10:58;;;;;;;;;3.25;3.25;;;;;-144.76;100.00;60493.00;5092139;27;45294;-82
2022/09/08 05:13:24;;;;;;;;;2.25;2.25;;;;;-144.76;100.00;60493.00;5092886;28;45361;-82
2022/09/08 05:15:49;;;;;;;;;2.00;2.00;;;;;-144.76;100.00;60493.00;5093010;27;45005;-82
2022/09/08 05:18:15;;;;;;;;;2.00;2.00;;;;;-144.76;100.00;60493.00;5093201;27;45019;-82
2022/09/08 05:20:40;;;;;;;;;2.00;2.00;;;;;-144.76;100.00;60493.00;5092700;27;52700;-81
2022/09/08 05:23:05;;;;;;;;;3.00;2.75;;;;;-144.76;100.00;60493.00;5092105;27;68750;-82
2022/09/08 05:25:31;;;;;;;;;3.00;1.67;;;;;-144.76;100.00;60493.00;5091378;28;62316;-82
2022/09/08 05:27:56;;;;;;;;;3.00;2.67;;;;;-144.76;100.00;60493.00;5092639;28;47194;-82
2022/09/08 05:30:22;;;;;;;;;2.67;2.67;;;;;-144.76;100.00;60493.00;5092345;27;50728;-81
2022/09/08 05:32:47;;;;;;;;;4.75;3.25;;;;;-144.76;100.00;60493.00;5092840;28;46024;-82
2022/09/08 05:35:12;;;;;;;;;4.25;3.75;;;;;-144.76;100.00;60493.00;5093136;27;54789;-82
2022/09/08 05:37:38;;;;;;;;;3.75;3.75;;;;;-144.76;100.00;60493.00;5092710;27;45350;-82
2022/09/08 05:40:03;;;;;;;;;2.75;2.75;;;;;-144.76;100.00;60493.00;5092395;27;45036;-82
2022/09/08 05:42:29;;;;;;;;;3.00;3.00;;;;;-144.76;100.00;60493.00;5090767;28;45969;-82
2022/09/08 05:44:54;;;;;;;;;2.75;1.75;;;;;-144.76;100.00;60493.00;5092643;27;45110;-82
2022/09/08 05:47:19;;;;;;;;;3.50;3.50;;;;;-144.76;100.00;60493.00;5092886;27;45095;-82
2022/09/08 05:49:46;;;;;;;;;2.50;2.50;;;;;-144.76;100.00;60493.00;5092292;27;45107;-81
2022/09/08 05:52:12;;;;;;;;;3.75;3.75;;;;;-144.76;100.00;60493.00;5092485;27;45662;-82
2022/09/08 05:54:38;;;;;;;;;3.00;3.00;;;;;-144.76;100.00;60493.00;5092379;28;45449;-82
2022/09/08 05:57:04;;;;;;;;;4.00;4.00;;;;;-144.76;100.00;60493.00;5090662;27;45579;-82
2022/09/08 05:59:30;;;;;;;;;4.00;4.00;;;;;-144.76;100.00;60493.00;5092717;27;44847;-82
2022/09/08 06:01:56;;;;;;;;;7.00;5.00;;;;;-144.76;100.00;60493.00;5091257;28;45393;-82
2022/09/08 06:04:21;;;;;;;;;3.50;3.50;;;;;-144.76;100.00;60493.00;5092132;27;45071;-81
2022/09/08 06:06:47;;;;;;;;;2.75;2.75;;;;;-144.76;100.00;60493.00;5092359;27;45346;-82
2022/09/08 06:09:12;;;;;;;;;5.00;5.00;;;;;-144.76;100.00;60493.00;5090654;28;45067;-82
2022/09/08 06:11:38;;;;;;;;;3.00;2.75;;;;;-144.76;100.00;60493.00;5089931;28;46951;-82
2022/09/08 06:14:05;;;;;;;;;6.00;3.00;;;;;-144.76;100.00;60493.00;5091546;27;45084;-82
2022/09/08 06:16:32;;;;;;;;;3.25;3.25;;;;;-144.76;100.00;60493.00;5107688;27;45178;-82
2022/09/08 06:18:59;;;;;;;;;4.50;3.75;;;;;-144.76;100.00;60493.00;5092123;27;44996;-83
2022/09/08 06:21:29;;;;;;;;;4.50;3.00;;;;;-144.76;100.00;60493.00;5091658;27;45655;-83
2022/09/08 06:23:58;;;;;;;;;4.00;4.00;;;;;-144.76;100.00;60493.00;5091725;27;45448;-83
2022/09/08 06:26:56;;;;;;;;;4.00;4.00;;;;;-144.76;100.00;60493.00;5089448;27;45350;-83
2022/09/08 06:29:24;;;;;;;;;4.50;4.00;;;;;-144.76;100.00;60493.00;5089806;27;45148;-82
2022/09/08 06:31:59;;;;;;;;;4.00;3.75;;;;;-144.76;100.00;60493.00;5091815;27;45975;-83
2022/09/08 06:34:28;;;;;;;;;3.50;3.00;;;;;-144.76;100.00;60493.00;5092224;27;45040;-83
2022/09/08 06:37:12;;;;;;;;;3.50;3.50;;;;;-144.76;100.00;60493.00;5090424;28;45660;-82
2022/09/08 06:39:54;;;;;;;;;2.75;2.50;;;;;-144.76;100.00;60493.00;5091758;27;45182;-83
2022/09/08 06:42:35;;;;;;;;;3.50;3.50;;;;;-144.76;100.00;60493.00;5090754;27;46152;-82
2022/09/08 06:45:03;;;;;;;;;4.50;4.00;;;;;-144.76;100.00;60493.00;5107463;27;45159;-82
2022/09/08 06:47:39;;;;;;;;;3.50;3.50;;;;;-144.76;100.00;60493.00;5091226;28;45100;-83
2022/09/08 06:50:06;;;;;;;;;4.75;3.75;;;;;-144.76;100.00;60493.00;5091679;27;44996;-82
2022/09/08 06:52:43;;;;;;;;;4.00;4.00;;;;;-144.76;100.00;60493.00;5091787;27;45759;-82
2022/09/08 06:55:23;;;;;;;;;5.00;4.00;;;;;-144.76;100.00;60493.00;5090494;27;45121;-83
2022/09/08 06:58:21;;;;;;;;;5.00;4.50;;;;;-144.76;100.00;60493.00;5106874;27;45250;-83
2022/09/08 07:00:58;;;;;;;;;6.00;5.00;;;;;-144.76;100.00;60493.00;5107252;27;45239;-83
2022/09/08 07:03:48;;;;;;;;;5.00;4.00;;;;;-144.76;100.00;60493.00;5106868;27;46975;-83
2022/09/08 07:06:17;;;;;;;;;4.25;3.25;;;;;-144.76;100.00;60493.00;5091456;27;45108;-82
2022/09/08 07:09:02;;;;;;;;;4.00;4.00;;;;;-144.76;100.00;60493.00;5091493;27;44976;-82
2022/09/08 07:11:43;;;;;;;;;2.00;2.00;;;;;-144.76;100.00;60493.00;5090762;27;44913;-82
2022/09/08 07:15:00;;;;;;;;;4.00;4.00;;;;;-144.76;100.00;60493.00;5091233;27;45194;-83
2022/09/08 07:17:53;;;;;;;;;4.75;3.50;;;;;-144.76;100.00;60493.00;5092937;28;45679;-83
2022/09/08 07:20:19;;;;;;;;;3.50;3.50;;;;;-144.76;100.00;60493.00;5094965;28;45119;-82
2022/09/08 07:22:49;;;;;;;;;5.50;4.25;;;;;-144.76;100.00;60493.00;5094738;27;45157;-83
2022/09/08 07:25:17;;;;;;;;;6.25;4.25;;;;;-144.76;100.00;60493.00;5094073;28;45098;-83
2022/09/08 07:27:46;;;;;;;;;4.00;4.00;;;;;-144.76;100.00;60493.00;5094449;27;45179;-82
2022/09/08 07:30:18;;;;;;;;;4.25;4.00;;;;;-144.76;100.00;60493.00;5095175;27;45225;-82
2022/09/08 07:32:49;;;;;;;;;5.00;3.00;;;;;-144.76;100.00;60493.00;5094834;27;45092;-82
2022/09/08 07:35:29;;;;;;;;;4.25;4.00;;;;;-144.76;100.00;60493.00;5094697;27;45620;-82
2022/09/08 07:37:58;;;;;;;;;4.00;4.00;;;;;-144.76;100.00;60493.00;5094810;27;45117;-82
2022/09/08 07:40:39;;;;;;;;;4.50;3.50;;;;;-144.76;100.00;60493.00;5093444;27;45067;-82
2022/09/08 07:43:11;;;;;;;;;3.00;3.00;;;;;-144.76;100.00;60493.00;5094637;27;44930;-82
2022/09/08 07:45:59;;;;;;;;;6.50;4.75;;;;;-144.76;100.00;60493.00;5094531;28;45826;-82
2022/09/08 07:48:28;;;;;;;;;4.75;4.00;;;;;-144.76;100.00;60493.00;5095076;27;45520;-82
2022/09/08 07:51:15;;;;;;;;;5.00;4.00;;;;;-144.76;100.00;60493.00;5094570;27;45113;-82
2022/09/08 07:53:58;;;;;;;;;4.00;4.00;;;;;-144.76;100.00;60493.00;5094321;27;44905;-82
2022/09/08 07:56:32;;;;;;;;;3.00;3.00;;;;;-144.76;100.00;60493.00;5094023;27;45788;-82
2022/09/08 07:59:39;;;;;;;;;3.75;3.00;;;;;-144.76;100.00;60493.00;5094436;27;45224;-82
2022/09/08 08:02:41;;;;;;;;;4.00;4.00;;;;;-144.76;100.00;60493.00;5092878;27;45113;-82
2022/09/08 08:05:27;;;;;;;;;4.00;4.00;;;;;-144.76;100.00;60493.00;5094491;28;45008;-82
2022/09/08 08:08:07;;;;;;;;;4.75;4.50;;;;;-144.76;100.00;60493.00;5094812;27;46304;-83
2022/09/08 08:10:52;;;;;;;;;4.75;4.00;;;;;-144.76;100.00;60493.00;5093449;27;45278;-83
2022/09/08 08:13:37;;;;;;;;;3.50;3.25;;;;;-144.76;100.00;60493.00;5094323;28;44940;-82
2022/09/08 08:16:09;;;;;;;;;4.75;4.00;;;;;-144.76;100.00;60493.00;5093916;27;45148;-82
2022/09/08 08:19:12;;;;;;;;;4.00;4.00;;;;;-144.76;100.00;60493.00;5093600;27;45481;-82
2022/09/08 08:21:51;;;;;;;;;4.50;3.75;;;;;-144.76;100.00;60493.00;5093885;27;45067;-82
2022/09/08 08:24:53;;;;;;;;;4.50;4.50;;;;;-144.76;100.00;60493.00;5093993;27;45117;-82
2022/09/08 08:27:35;;;;;;;;;5.50;4.75;;;;;-144.76;100.00;60493.00;5092729;27;45269;-82
2022/09/08 08:30:13;;;;;;;;;4.25;3.00;;;;;-144.76;100.00;60493.00;5093919;28;45228;-82
2022/09/08 08:32:43;;;;;;;;;2.75;2.75;;;;;-144.76;100.00;60493.00;5093727;27;45446;-82
2022/09/08 08:35:32;;;;;;;;;3.00;3.00;;;;;-144.76;100.00;60493.00;5094057;27;45070;-82
2022/09/08 08:38:00;;;;;;;;;3.00;3.00;;;;;-144.76;100.00;60493.00;5093868;28;45060;-82
2022/09/08 08:40:45;;;;;;;;;4.00;3.75;;;;;-144.76;100.00;60493.00;5092532;27;45042;-82
2022/09/08 08:43:38;;;;;;;;;3.25;2.75;;;;;-144.76;100.00;60493.00;5093771;27;45705;-83
2022/09/08 08:46:24;;;;;;;;;3.00;3.00;;;;;-144.76;100.00;60493.00;5093460;28;44907;-83
2022/09/08 08:49:11;;;;;;;;;3.00;3.00;;;;;-144.76;100.00;60493.00;5093712;27;45070;-82
2022/09/08 08:52:14;;;;;;;;;4.00;3.00;;;;;-144.76;100.00;60493.00;5093447;28;45132;-82
2022/09/08 08:54:57;;;;;;;;;3.25;3.00;;;;;-144.76;100.00;60493.00;5109810;27;45389;-82
2022/09/08 08:58:00;;;;;;;;;3.50;3.00;;;;;-144.76;100.00;60493.00;5093626;27;45130;-81
2022/09/08 09:00:57;;;;;;;;;3.75;2.50;;;;;-144.76;100.00;60493.00;5091635;28;44964;-82
2022/09/08 09:04:07;;;;;;;;;4.50;3.25;;;;;-144.76;100.00;60493.00;5093206;27;45222;-82
2022/09/08 09:07:02;;;;;;;;;4.00;3.00;;;;;-144.76;100.00;60493.00;5091384;28;45100;-82
2022/09/08 09:09:50;;;;;;;;;1.00;1.00;;;;;-144.76;100.00;60493.00;5093064;27;45231;-82
2022/09/08 09:12:24;;;;;;;;;7.00;4.50;;;;;-144.76;100.00;60493.00;5092624;27;45024;-82
2022/09/08 09:15:07;;;;;;;;;4.00;3.00;;;;;-144.76;100.00;60493.00;5093045;27;45511;-82
2022/09/08 09:17:54;;;;;;;;;5.00;5.00;;;;;-144.76;100.00;60493.00;5093069;27;45072;-82
2022/09/08 09:20:39;;;;;;;;;6.00;4.00;;;;;-144.76;100.00;60493.00;5093199;27;45036;-82
2022/09/08 09:23:20;;;;;;;;;3.50;3.25;;;;;-144.76;100.00;60493.00;5090961;27;45008;-82
2022/09/08 09:25:59;;;;;;;;;5.75;4.75;;;;;-144.76;100.00;60493.00;5090926;27;45411;-82
2022/09/08 09:28:49;;;;;;;;;4.00;4.00;;;;;-144.76;100.00;60493.00;5092684;28;45025;-82
2022/09/08 09:31:50;;;;;;;;;5.50;2.75;;;;;-144.76;100.00;60493.00;5092701;27;45142;-82
2022/09/08 09:34:21;;;;;;;;;3.00;3.00;;;;;-144.76;100.00;60493.00;5092879;28;45100;-82
2022/09/08 09:37:13;;;;;;;;;5.00;4.75;;;;;-144.76;100.00;60493.00;5092847;27;45241;-81
2022/09/08 09:39:38;;;;;;;;;4.25;3.25;;;;;-144.76;100.00;60493.00;5092252;27;45054;-82
2022/09/08 09:42:41;;;;;;;;;3.67;3.67;;;;;-144.76;100.00;60493.00;5091144;27;45062;-83
2022/09/08 09:45:44;;;;;;;;;4.50;4.25;;;;;-144.76;100.00;60493.00;5092913;27;45048;-82
2022/09/08 09:49:11;;;;;;;;;4.75;4.00;;;;;-144.76;100.00;60493.00;5092374;27;45215;-82
2022/09/08 09:51:58;;;;;;;;;4.00;3.00;;;;;-144.76;100.00;60493.00;5072642;28;45179;-82
2022/09/08 09:54:54;;;;;;;;;5.00;4.25;;;;;-144.76;100.00;60493.00;5090493;28;45247;-82
2022/09/08 09:57:31;;;;;;;;;4.75;3.00;;;;;-144.76;100.00;60493.00;5090827;27;45029;-82
2022/09/08 10:00:12;;;;;;;;;5.25;3.75;;;;;-144.76;100.00;60493.00;5092015;27;45579;-83
2022/09/08 10:02:56;;;;;;;;;4.50;4.00;;;;;-144.76;100.00;60493.00;5092798;27;45220;-82
2022/09/08 10:05:52;;;;;;;;;3.00;3.00;;;;;-144.76;100.00;60493.00;5092208;28;44940;-83
2022/09/08 10:08:42;;;;;;;;;3.00;3.00;;;;;-144.76;100.00;60493.00;5092489;27;45205;-83
2022/09/08 10:11:21;;;;;;;;;5.00;3.50;;;;;-144.76;100.00;60493.00;5106905;27;46714;-82
2022/09/08 10:14:14;;;;;;;;;2.25;2.25;;;;;-144.76;100.00;60493.00;5107535;27;49367;-82
2022/09/08 10:16:58;;;;;;;;;1.50;1.25;;;;;-144.76;100.00;60493.00;5091721;27;45117;-82
2022/09/08 10:19:55;;;;;;;;;2.50;2.00;;;;;-144.76;100.00;60493.00;5092093;27;45323;-82
2022/09/08 10:22:29;;;;;;;;;2.00;2.00;;;;;-144.76;100.00;60493.00;5092043;28;46059;-82
2022/09/08 10:25:22;;;;;;;;;2.00;2.00;;;;;-144.76;100.00;60493.00;5092196;27;45134;-83
2022/09/08 10:28:21;;;;;;;;;3.00;3.00;;;;;-144.76;100.00;60493.00;5091745;28;45062;-82
2022/09/08 10:31:08;;;;;;;;;2.25;2.00;;;;;-144.76;100.00;60493.00;5107814;27;45231;-82
2022/09/08 10:33:39;;;;;;;;;4.00;2.50;;;;;-144.76;100.00;60493.00;5091820;27;46055;-81
2022/09/08 10:36:09;;;;;;;;;2.75;2.25;;;;;-144.76;100.00;60493.00;5091898;28;45500;-83
2022/09/08 10:39:12;;;;;;;;;1.25;1.25;;;;;-144.76;100.00;60493.00;5091961;27;44921;-83
2022/09/08 10:42:08;;;;;;;;;2.00;2.00;;;;;-144.76;100.00;60493.00;5088896;28;45438;-82
2022/09/08 10:44:33;;;;;;;;;1.50;1.50;;;;;-144.76;100.00;60493.00;5091367;27;45159;-82
2022/09/08 10:47:11;;;;;;;;;1.50;1.25;;;;;-144.76;100.00;60493.00;5107429;27;45081;-83
2022/09/08 10:49:55;;;;;;;;;1.00;1.00;;;;;-144.76;100.00;60493.00;5091225;27;45031;-82
2022/09/08 10:52:42;;;;;;;;;3.00;2.25;;;;;-144.76;100.00;60493.00;5090709;28;45017;-82
2022/09/08 10:55:29;;;;;;;;;1.50;1.50;;;;;-144.76;100.00;60493.00;5091437;28;45626;-82
2022/09/08 10:58:33;;;;;;;;;2.00;2.00;;;;;-144.76;100.00;60493.00;5091836;27;45234;-83
2022/09/08 11:01:37;;;;;;;;;4.25;3.75;;;;;-144.76;100.00;60493.00;5107094;27;45140;-83
2022/09/08 11:04:42;;;;;;;;;4.25;2.00;;;;;-144.76;100.00;60493.00;5090474;27;45083;-83
2022/09/08 11:07:07;;;;;;;;;2.00;2.00;;;;;-144.76;100.00;60493.00;5091463;27;46237;-83
2022/09/08 11:10:06;;;;;;;;;1.67;1.00;;;;;-144.76;100.00;60493.00;5090960;27;48952;-83
2022/09/08 11:12:56;;;;;;;;;1.75;1.75;;;;;-144.76;100.00;60493.00;5090910;27;45084;-83
2022/09/08 11:15:46;;;;;;;;;4.25;2.75;;;;;-144.76;100.00;60493.00;5091327;28;45013;-82
2022/09/08 11:18:26;;;;;;;;;2.75;2.00;;;;;-144.76;100.00;60493.00;5091295;27;45259;-82
2022/09/08 11:20:55;;;;;;;;;1.00;1.00;;;;;-144.76;100.00;60493.00;5090752;27;45390;-82
2022/09/08 11:23:50;;;;;;;;;1.00;1.00;;;;;-144.76;100.00;60493.00;5090582;27;45078;-82
2022/09/08 11:26:38;;;;;;;;;1.00;1.00;;;;;-144.76;100.00;60493.00;5090557;28;44955;-82
2022/09/08 11:29:11;;;;;;;;;2.00;1.50;;;;;-144.76;100.00;60493.00;5090961;27;45985;-82
2022/09/08 11:32:01;;;;;;;;;2.50;1.00;;;;;-144.76;100.00;60493.00;5091430;27;45683;-82
2022/09/08 11:34:32;;;;;;;;;2.50;2.00;;;;;-144.76;100.00;60493.00;5106313;27;45381;-82
2022/09/08 11:37:07;;;;;;;;;2.25;2.00;;;;;-144.76;100.00;60493.00;5091182;27;45033;-82
2022/09/08 11:39:44;;;;;;;;;2.50;2.50;;;;;-144.76;100.00;60493.00;5091114;27;45186;-82
2022/09/08 11:42:27;;;;;;;;;3.25;2.25;;;;;-144.76;100.00;60493.00;5090454;27;48065;-82
2022/09/08 11:45:29;;;;;;;;;2.25;2.25;;;;;-144.76;100.00;60493.00;5091083;28;45000;-82
2022/09/08 11:48:08;;;;;;;;;2.50;2.00;;;;;-144.76;100.00;60493.00;5090823;27;45023;-82
2022/09/08 11:50:38;;;;;;;;;2.50;2.50;;;;;-144.76;100.00;60493.00;5091267;28;45256;-81